createdAt,value
2016-11-29T00:00:18.698Z,993.47
2016-11-29T00:01:27.387Z,993.45
2016-11-29T00:02:36.127Z,993.46
2016-11-29T00:03:44.813Z,993.4
2016-11-29T00:04:53.498Z,993.47
2016-11-29T00:06:02.183Z,993.46
2016-11-29T00:07:10.869Z,993.48
2016-11-29T00:08:19.816Z,993.52
2016-11-29T00:09:28.503Z,993.45
2016-11-29T00:10:37.188Z,993.46
2016-11-29T00:11:45.875Z,993.56
2016-11-29T00:12:54.592Z,993.43
2016-11-29T00:14:03.331Z,993.44
2016-11-29T00:15:12.020Z,993.43
2016-11-29T00:16:20.706Z,993.43
2016-11-29T00:17:29.423Z,993.49
2016-11-29T00:18:38.110Z,993.45
2016-11-29T00:19:46.845Z,993.47
2016-11-29T00:20:55.531Z,993.48
2016-11-29T00:22:04.220Z,993.54
2016-11-29T00:23:12.907Z,993.5
2016-11-29T00:24:21.599Z,993.4
2016-11-29T00:25:30.337Z,993.35
2016-11-29T00:26:39.024Z,993.29
2016-11-29T00:27:47.714Z,993.34
2016-11-29T00:28:56.400Z,993.27
2016-11-29T00:30:05.087Z,993.3
2016-11-29T00:31:13.828Z,993.34
2016-11-29T00:32:22.510Z,993.35
2016-11-29T00:33:31.539Z,993.36
2016-11-29T00:34:40.224Z,993.49
2016-11-29T00:35:48.911Z,993.39
2016-11-29T00:36:57.649Z,993.33
2016-11-29T00:38:06.339Z,993.28
2016-11-29T00:39:15.027Z,993.29
2016-11-29T00:40:23.716Z,993.34
2016-11-29T00:41:32.399Z,993.35
2016-11-29T00:42:41.182Z,993.35
2016-11-29T00:43:49.863Z,993.26
2016-11-29T00:44:58.549Z,993.3
2016-11-29T00:46:07.238Z,993.25
2016-11-29T00:47:15.937Z,993.33
2016-11-29T00:48:24.674Z,993.45
2016-11-29T00:49:33.393Z,993.39
2016-11-29T00:50:42.115Z,993.38
2016-11-29T00:51:50.798Z,993.28
2016-11-29T00:52:59.486Z,993.27
2016-11-29T00:54:08.231Z,993.2
2016-11-29T00:55:16.919Z,993.16
2016-11-29T00:56:25.605Z,993.22
2016-11-29T00:57:34.294Z,993.1
2016-11-29T00:58:42.982Z,993.15
2016-11-29T00:59:52.033Z,993.09
2016-11-29T01:01:00.720Z,993.07
2016-11-29T01:02:09.402Z,993.07
2016-11-29T01:03:18.084Z,993.03
2016-11-29T01:04:26.779Z,993.04
2016-11-29T01:05:35.524Z,993.03
2016-11-29T01:06:44.213Z,993.12
2016-11-29T01:07:52.903Z,993.11
2016-11-29T01:09:01.593Z,993.08
2016-11-29T01:10:10.282Z,993.05
2016-11-29T01:11:19.042Z,993.07
2016-11-29T01:12:27.730Z,993.04
2016-11-29T01:13:36.418Z,993.04
2016-11-29T01:14:45.103Z,993.07
2016-11-29T01:15:53.786Z,993.05
2016-11-29T01:17:02.479Z,992.96
2016-11-29T01:18:11.167Z,992.91
2016-11-29T01:19:19.850Z,992.9
2016-11-29T01:20:28.540Z,992.88
2016-11-29T01:21:37.227Z,992.92
2016-11-29T01:22:45.915Z,992.95
2016-11-29T01:23:54.600Z,993
2016-11-29T01:25:03.630Z,992.94
2016-11-29T01:26:12.316Z,992.89
2016-11-29T01:27:21.006Z,992.89
2016-11-29T01:28:29.721Z,992.83
2016-11-29T01:29:38.410Z,992.89
2016-11-29T01:30:47.093Z,992.91
2016-11-29T01:31:55.781Z,992.92
2016-11-29T01:33:04.471Z,992.94
2016-11-29T01:34:13.158Z,993
2016-11-29T01:35:21.873Z,992.9
2016-11-29T01:36:30.559Z,992.91
2016-11-29T01:37:39.248Z,992.76
2016-11-29T01:38:47.930Z,992.77
2016-11-29T01:39:56.614Z,992.71
2016-11-29T01:41:05.302Z,992.78
2016-11-29T01:42:13.992Z,992.71
2016-11-29T01:43:22.676Z,992.7
2016-11-29T01:44:31.362Z,992.79
2016-11-29T01:45:40.076Z,992.81
2016-11-29T01:46:48.761Z,992.76
2016-11-29T01:47:57.445Z,992.71
2016-11-29T01:49:06.127Z,992.7
2016-11-29T01:50:14.813Z,992.72
2016-11-29T01:51:23.498Z,992.72
2016-11-29T01:52:32.214Z,992.78
2016-11-29T01:53:41.218Z,992.7
2016-11-29T01:54:49.907Z,992.7
2016-11-29T01:55:58.596Z,992.73
2016-11-29T01:57:07.285Z,992.72
2016-11-29T01:58:15.976Z,992.7
2016-11-29T01:59:24.661Z,992.78
2016-11-29T02:00:33.352Z,992.81
2016-11-29T02:01:42.045Z,992.78
2016-11-29T02:02:50.732Z,992.76
2016-11-29T02:03:59.422Z,992.73
2016-11-29T02:05:08.108Z,992.68
2016-11-29T02:06:16.792Z,992.67
2016-11-29T02:07:25.478Z,992.69
2016-11-29T02:08:34.165Z,992.67
2016-11-29T02:09:42.852Z,992.69
2016-11-29T02:10:51.533Z,992.59
2016-11-29T02:12:00.253Z,992.62
2016-11-29T02:13:08.940Z,992.65
2016-11-29T02:14:17.652Z,992.64
2016-11-29T02:15:26.343Z,992.57
2016-11-29T02:16:35.031Z,992.56
2016-11-29T02:17:43.717Z,992.54
2016-11-29T02:18:52.402Z,992.48
2016-11-29T02:20:01.092Z,992.38
2016-11-29T02:21:09.772Z,992.37
2016-11-29T02:22:18.457Z,992.36
2016-11-29T02:23:27.140Z,992.38
2016-11-29T02:24:35.825Z,992.4
2016-11-29T02:25:44.508Z,992.38
2016-11-29T02:26:53.196Z,992.31
2016-11-29T02:28:01.886Z,992.32
2016-11-29T02:29:10.580Z,992.32
2016-11-29T02:30:19.263Z,992.31
2016-11-29T02:31:27.947Z,992.3
2016-11-29T02:32:36.641Z,992.36
2016-11-29T02:33:45.328Z,992.34
2016-11-29T02:34:54.045Z,992.34
2016-11-29T02:36:02.733Z,992.33
2016-11-29T02:37:11.418Z,992.31
2016-11-29T02:38:20.105Z,992.28
2016-11-29T02:39:28.792Z,992.28
2016-11-29T02:40:37.480Z,992.25
2016-11-29T02:41:46.172Z,992.21
2016-11-29T02:42:54.858Z,992.27
2016-11-29T02:44:03.546Z,992.23
2016-11-29T02:45:12.234Z,992.2
2016-11-29T02:46:20.920Z,992.26
2016-11-29T02:47:29.603Z,992.21
2016-11-29T02:48:38.289Z,992.23
2016-11-29T02:49:46.977Z,992.22
2016-11-29T02:50:55.657Z,992.14
2016-11-29T02:52:04.342Z,992.11
2016-11-29T02:53:13.028Z,992.12
2016-11-29T02:54:21.711Z,992.14
2016-11-29T02:55:30.401Z,992.06
2016-11-29T02:56:39.090Z,992.11
2016-11-29T02:57:47.772Z,992.13
2016-11-29T02:58:56.780Z,992.05
2016-11-29T03:00:05.464Z,992.05
2016-11-29T03:01:14.152Z,991.97
2016-11-29T03:02:22.838Z,991.99
2016-11-29T03:03:31.519Z,991.94
2016-11-29T03:04:40.203Z,991.93
2016-11-29T03:05:48.890Z,991.9
2016-11-29T03:06:57.581Z,991.84
2016-11-29T03:08:06.269Z,991.85
2016-11-29T03:09:14.955Z,991.85
2016-11-29T03:10:23.638Z,991.82
2016-11-29T03:11:32.327Z,991.75
2016-11-29T03:12:41.013Z,991.77
2016-11-29T03:13:49.729Z,991.75
2016-11-29T03:14:58.420Z,991.76
2016-11-29T03:16:07.123Z,991.75
2016-11-29T03:17:15.806Z,991.78
2016-11-29T03:18:24.490Z,991.76
2016-11-29T03:19:33.175Z,991.77
2016-11-29T03:20:41.871Z,991.72
2016-11-29T03:21:50.556Z,991.72
2016-11-29T03:22:59.344Z,991.69
2016-11-29T03:24:08.035Z,991.7
2016-11-29T03:25:16.717Z,991.7
2016-11-29T03:26:25.437Z,991.65
2016-11-29T03:27:34.120Z,991.64
2016-11-29T03:28:42.810Z,991.62
2016-11-29T03:29:51.497Z,991.6
2016-11-29T03:31:00.186Z,991.58
2016-11-29T03:32:08.882Z,991.6
2016-11-29T03:33:17.566Z,991.54
2016-11-29T03:34:26.250Z,991.5
2016-11-29T03:35:34.935Z,991.51
2016-11-29T03:36:43.620Z,991.47
2016-11-29T03:37:52.301Z,991.5
2016-11-29T03:39:00.989Z,991.52
2016-11-29T03:40:09.677Z,991.49
2016-11-29T03:41:18.698Z,991.55
2016-11-29T03:42:27.380Z,991.52
2016-11-29T03:43:36.069Z,991.55
2016-11-29T03:44:44.761Z,991.53
2016-11-29T03:45:53.480Z,991.53
2016-11-29T03:47:02.166Z,991.5
2016-11-29T03:48:10.851Z,991.5
2016-11-29T03:49:19.534Z,991.55
2016-11-29T03:50:28.217Z,991.53
2016-11-29T03:51:36.902Z,991.5
2016-11-29T03:52:45.586Z,991.48
2016-11-29T03:53:54.274Z,991.47
2016-11-29T03:55:02.960Z,991.48
2016-11-29T03:56:11.649Z,991.48
2016-11-29T03:57:20.336Z,991.49
2016-11-29T03:58:29.024Z,991.49
2016-11-29T03:59:37.710Z,991.52
2016-11-29T04:00:46.390Z,991.51
2016-11-29T04:01:55.074Z,991.51
2016-11-29T04:03:04.087Z,991.44
2016-11-29T04:04:12.769Z,991.46
2016-11-29T04:05:21.449Z,991.4
2016-11-29T04:06:30.132Z,991.41
2016-11-29T04:07:38.815Z,991.4
2016-11-29T04:08:47.505Z,991.38
2016-11-29T04:09:56.189Z,991.37
2016-11-29T04:11:04.877Z,991.38
2016-11-29T04:12:13.570Z,991.42
2016-11-29T04:13:22.256Z,991.41
2016-11-29T04:14:30.944Z,991.39
2016-11-29T04:15:39.663Z,991.4
2016-11-29T04:16:48.348Z,991.41
2016-11-29T04:17:57.034Z,991.44
2016-11-29T04:19:05.718Z,991.37
2016-11-29T04:20:14.407Z,991.39
2016-11-29T04:21:23.127Z,991.26
2016-11-29T04:22:31.841Z,991.28
2016-11-29T04:23:40.533Z,991.32
2016-11-29T04:24:49.526Z,991.27
2016-11-29T04:25:58.209Z,991.25
2016-11-29T04:27:06.897Z,991.23
2016-11-29T04:28:15.586Z,991.15
2016-11-29T04:29:24.276Z,991.18
2016-11-29T04:30:32.966Z,991.21
2016-11-29T04:31:41.648Z,991.18
2016-11-29T04:32:50.337Z,991.1
2016-11-29T04:33:59.020Z,991.12
2016-11-29T04:35:07.711Z,991.13
2016-11-29T04:36:16.398Z,991.14
2016-11-29T04:37:25.082Z,991.14
2016-11-29T04:38:33.767Z,991.14
2016-11-29T04:39:42.456Z,991.23
2016-11-29T04:40:51.146Z,991.25
2016-11-29T04:41:59.835Z,991.17
2016-11-29T04:43:08.525Z,991.16
2016-11-29T04:44:17.210Z,991.18
2016-11-29T04:45:25.892Z,991.23
2016-11-29T04:46:34.580Z,991.24
2016-11-29T04:47:43.267Z,991.2
2016-11-29T04:48:51.952Z,991.16
2016-11-29T04:50:00.955Z,991.17
2016-11-29T04:51:09.644Z,991.11
2016-11-29T04:52:18.327Z,991.15
2016-11-29T04:53:27.327Z,991.08
2016-11-29T04:54:36.326Z,991.09
2016-11-29T04:55:45.016Z,991.07
2016-11-29T04:56:53.699Z,991.09
2016-11-29T04:58:02.383Z,991.06
2016-11-29T04:59:11.068Z,991.04
2016-11-29T05:00:19.747Z,991.06
2016-11-29T05:01:28.428Z,991.03
2016-11-29T05:02:37.109Z,991.05
2016-11-29T05:03:45.789Z,991.03
2016-11-29T05:04:54.476Z,990.98
2016-11-29T05:06:03.160Z,990.9
2016-11-29T05:07:11.847Z,990.9
2016-11-29T05:08:20.532Z,991.01
2016-11-29T05:09:29.215Z,990.99
2016-11-29T05:10:37.899Z,991.02
2016-11-29T05:11:46.582Z,990.93
2016-11-29T05:12:55.264Z,990.89
2016-11-29T05:14:03.946Z,990.87
2016-11-29T05:15:12.628Z,990.89
2016-11-29T05:16:21.312Z,990.85
2016-11-29T05:17:29.995Z,990.89
2016-11-29T05:18:38.675Z,990.87
2016-11-29T05:19:47.360Z,990.88
2016-11-29T05:20:56.045Z,990.86
2016-11-29T05:22:04.730Z,990.78
2016-11-29T05:23:13.410Z,990.79
2016-11-29T05:24:22.094Z,990.76
2016-11-29T05:25:30.775Z,990.76
2016-11-29T05:26:39.459Z,990.71
2016-11-29T05:27:48.175Z,990.69
2016-11-29T05:28:56.857Z,990.67
2016-11-29T05:30:05.541Z,990.67
2016-11-29T05:31:14.230Z,990.64
2016-11-29T05:32:22.911Z,990.59
2016-11-29T05:33:31.591Z,990.54
2016-11-29T05:34:40.589Z,990.56
2016-11-29T05:35:49.270Z,990.58
2016-11-29T05:36:57.955Z,990.51
2016-11-29T05:38:06.636Z,990.52
2016-11-29T05:39:15.318Z,990.53
2016-11-29T05:40:24.003Z,990.51
2016-11-29T05:41:32.700Z,990.5
2016-11-29T05:42:41.382Z,990.48
2016-11-29T05:43:50.063Z,990.44
2016-11-29T05:44:58.747Z,990.36
2016-11-29T05:46:07.793Z,990.39
2016-11-29T05:47:16.477Z,990.4
2016-11-29T05:48:25.164Z,990.36
2016-11-29T05:49:33.847Z,990.34
2016-11-29T05:50:42.526Z,990.33
2016-11-29T05:51:51.210Z,990.38
2016-11-29T05:52:59.892Z,990.34
2016-11-29T05:54:08.574Z,990.35
2016-11-29T05:55:17.261Z,990.38
2016-11-29T05:56:25.942Z,990.32
2016-11-29T05:57:34.626Z,990.3
2016-11-29T05:58:43.303Z,990.37
2016-11-29T05:59:51.991Z,990.25
2016-11-29T06:01:00.670Z,990.28
2016-11-29T06:02:09.354Z,990.3
2016-11-29T06:03:18.041Z,990.21
2016-11-29T06:04:26.724Z,990.23
2016-11-29T06:05:35.403Z,990.3
2016-11-29T06:06:44.083Z,990.2
2016-11-29T06:07:52.775Z,990.22
2016-11-29T06:09:01.460Z,990.13
2016-11-29T06:10:10.143Z,990.1
2016-11-29T06:11:18.824Z,990.14
2016-11-29T06:12:27.537Z,990.06
2016-11-29T06:13:36.217Z,990.07
2016-11-29T06:14:44.903Z,990.03
2016-11-29T06:15:53.593Z,989.98
2016-11-29T06:17:02.596Z,989.99
2016-11-29T06:18:11.277Z,989.95
2016-11-29T06:19:19.959Z,989.93
2016-11-29T06:20:28.643Z,989.87
2016-11-29T06:21:37.333Z,989.8
2016-11-29T06:22:46.020Z,989.85
2016-11-29T06:23:54.726Z,989.83
2016-11-29T06:25:03.731Z,989.79
2016-11-29T06:26:12.415Z,989.84
2016-11-29T06:27:21.101Z,989.81
2016-11-29T06:28:29.782Z,989.84
2016-11-29T06:29:38.461Z,989.85
2016-11-29T06:30:47.149Z,989.83
2016-11-29T06:31:55.835Z,989.79
2016-11-29T06:33:04.562Z,989.78
2016-11-29T06:34:13.252Z,989.73
2016-11-29T06:35:21.934Z,989.78
2016-11-29T06:36:30.647Z,989.8
2016-11-29T06:37:39.332Z,989.75
2016-11-29T06:38:48.011Z,989.74
2016-11-29T06:39:56.691Z,989.73
2016-11-29T06:41:05.379Z,989.72
2016-11-29T06:42:14.087Z,989.67
2016-11-29T06:43:22.770Z,989.66
2016-11-29T06:44:31.453Z,989.61
2016-11-29T06:45:40.131Z,989.57
2016-11-29T06:46:48.812Z,989.59
2016-11-29T06:47:57.496Z,989.59
2016-11-29T06:49:06.819Z,989.58
2016-11-29T06:50:15.494Z,989.55
2016-11-29T06:51:24.187Z,989.57
2016-11-29T06:52:32.867Z,989.6
2016-11-29T06:53:41.549Z,989.65
2016-11-29T06:54:50.235Z,989.59
2016-11-29T06:55:58.926Z,989.59
2016-11-29T06:57:07.613Z,989.59
2016-11-29T06:58:16.308Z,989.55
2016-11-29T06:59:24.994Z,989.55
2016-11-29T07:00:33.677Z,989.53
2016-11-29T07:01:42.363Z,989.55
2016-11-29T07:02:51.052Z,989.53
2016-11-29T07:03:59.760Z,989.57
2016-11-29T07:05:08.452Z,989.53
2016-11-29T07:06:17.142Z,989.46
2016-11-29T07:07:25.823Z,989.44
2016-11-29T07:08:34.510Z,989.38
2016-11-29T07:09:43.200Z,989.38
2016-11-29T07:10:51.880Z,989.31
2016-11-29T07:12:00.563Z,989.26
2016-11-29T07:13:09.252Z,989.22
2016-11-29T07:14:17.941Z,989.28
2016-11-29T07:15:26.623Z,989.29
2016-11-29T07:16:35.305Z,989.31
2016-11-29T07:17:43.991Z,989.29
2016-11-29T07:18:52.678Z,989.26
2016-11-29T07:20:01.362Z,989.23
2016-11-29T07:21:10.054Z,989.2
2016-11-29T07:22:18.735Z,989.23
2016-11-29T07:23:27.424Z,989.2
2016-11-29T07:24:36.108Z,989.21
2016-11-29T07:25:44.791Z,989.18
2016-11-29T07:26:53.472Z,989.15
2016-11-29T07:28:02.154Z,989.11
2016-11-29T07:29:10.838Z,989.05
2016-11-29T07:30:19.520Z,989.01
2016-11-29T07:31:28.200Z,988.95
2016-11-29T07:32:36.918Z,988.97
2016-11-29T07:33:45.600Z,988.94
2016-11-29T07:34:54.284Z,988.95
2016-11-29T07:36:02.978Z,988.91
2016-11-29T07:37:11.666Z,988.91
2016-11-29T07:38:20.349Z,988.85
2016-11-29T07:39:29.035Z,988.88
2016-11-29T07:40:37.717Z,988.82
2016-11-29T07:41:46.398Z,988.82
2016-11-29T07:42:55.082Z,988.79
2016-11-29T07:44:03.762Z,988.76
2016-11-29T07:45:12.764Z,988.7
2016-11-29T07:46:21.448Z,988.63
2016-11-29T07:47:30.134Z,988.66
2016-11-29T07:48:38.814Z,988.61
2016-11-29T07:49:47.499Z,988.56
2016-11-29T07:50:56.179Z,988.52
2016-11-29T07:52:04.858Z,988.45
2016-11-29T07:53:13.547Z,988.46
2016-11-29T07:54:22.262Z,988.43
2016-11-29T07:55:30.943Z,988.42
2016-11-29T07:56:39.622Z,988.4
2016-11-29T07:57:48.617Z,988.34
2016-11-29T07:58:57.305Z,988.32
2016-11-29T08:00:05.989Z,988.27
2016-11-29T08:01:14.681Z,988.25
2016-11-29T08:02:23.692Z,988.25
2016-11-29T08:03:32.377Z,988.26
2016-11-29T08:04:41.057Z,988.19
2016-11-29T08:05:49.738Z,988.2
2016-11-29T08:06:58.427Z,988.18
2016-11-29T08:08:07.106Z,988.2
2016-11-29T08:09:15.791Z,988.22
2016-11-29T08:10:24.473Z,988.2
2016-11-29T08:11:33.163Z,988.17
2016-11-29T08:12:41.845Z,988.18
2016-11-29T08:13:50.527Z,988.17
2016-11-29T08:14:59.532Z,988.16
2016-11-29T08:16:08.251Z,988.16
2016-11-29T08:17:16.934Z,988.13
2016-11-29T08:18:25.615Z,988.15
2016-11-29T08:19:34.298Z,988.15
2016-11-29T08:20:43.012Z,988.11
2016-11-29T08:21:51.698Z,988.11
2016-11-29T08:23:00.410Z,988.1
2016-11-29T08:24:09.406Z,988.08
2016-11-29T08:25:18.083Z,988.11
2016-11-29T08:26:26.765Z,988.08
2016-11-29T08:27:35.446Z,988.07
2016-11-29T08:28:44.126Z,988.09
2016-11-29T08:29:52.806Z,988.07
2016-11-29T08:31:01.491Z,988.02
2016-11-29T08:32:10.184Z,988.02
2016-11-29T08:33:18.868Z,988
2016-11-29T08:34:27.566Z,987.96
2016-11-29T08:35:36.254Z,987.87
2016-11-29T08:36:44.937Z,987.89
2016-11-29T08:37:53.624Z,987.88
2016-11-29T08:39:02.306Z,987.94
2016-11-29T08:40:10.989Z,988
2016-11-29T08:41:19.677Z,987.99
2016-11-29T08:42:28.357Z,987.95
2016-11-29T08:43:37.043Z,987.91
2016-11-29T08:44:45.727Z,987.85
2016-11-29T08:45:54.727Z,987.83
2016-11-29T08:47:03.413Z,987.84
2016-11-29T08:48:12.092Z,987.83
2016-11-29T08:49:21.102Z,987.78
2016-11-29T08:50:30.108Z,987.8
2016-11-29T08:51:38.789Z,987.8
2016-11-29T08:52:47.497Z,987.72
2016-11-29T08:53:56.184Z,987.72
2016-11-29T08:55:04.864Z,987.7
2016-11-29T08:56:13.548Z,987.68
2016-11-29T08:57:22.226Z,987.7
2016-11-29T08:58:30.937Z,987.71
2016-11-29T08:59:39.622Z,987.76
2016-11-29T09:00:48.305Z,987.76
2016-11-29T09:01:56.985Z,987.82
2016-11-29T09:03:05.670Z,987.78
2016-11-29T09:04:14.349Z,987.72
2016-11-29T09:05:23.346Z,987.71
2016-11-29T09:06:32.034Z,987.75
2016-11-29T09:07:40.713Z,987.77
2016-11-29T09:08:49.403Z,987.79
2016-11-29T09:09:58.088Z,987.79
2016-11-29T09:11:06.780Z,987.84
2016-11-29T09:12:15.475Z,987.84
2016-11-29T09:13:24.201Z,987.85
2016-11-29T09:14:32.930Z,987.92
2016-11-29T09:15:41.930Z,987.89
2016-11-29T09:16:50.618Z,987.82
2016-11-29T09:17:59.311Z,987.8
2016-11-29T09:19:07.993Z,987.78
2016-11-29T09:20:16.681Z,987.8
2016-11-29T09:21:25.364Z,987.76
2016-11-29T09:22:34.052Z,987.85
2016-11-29T09:23:42.737Z,987.9
2016-11-29T09:24:51.416Z,987.89
2016-11-29T09:26:00.105Z,987.98
2016-11-29T09:27:08.789Z,987.94
2016-11-29T09:28:17.472Z,988
2016-11-29T09:29:26.156Z,988
2016-11-29T09:30:34.843Z,987.95
2016-11-29T09:31:43.532Z,987.99
2016-11-29T09:32:52.549Z,988.05
2016-11-29T09:34:01.231Z,987.99
2016-11-29T09:35:09.914Z,987.92
2016-11-29T09:36:18.598Z,987.91
2016-11-29T09:37:27.287Z,987.98
2016-11-29T09:38:35.969Z,987.87
2016-11-29T09:39:44.652Z,987.86
2016-11-29T09:40:53.332Z,987.9
2016-11-29T09:42:02.018Z,987.8
2016-11-29T09:43:10.703Z,987.81
2016-11-29T09:44:19.710Z,987.8
2016-11-29T09:45:28.395Z,987.79
2016-11-29T09:46:37.078Z,987.81
2016-11-29T09:47:45.769Z,987.72
2016-11-29T09:48:54.462Z,987.61
2016-11-29T09:50:03.148Z,987.51
2016-11-29T09:51:11.837Z,987.54
2016-11-29T09:52:20.526Z,987.49
2016-11-29T09:53:29.213Z,987.48
2016-11-29T09:54:37.893Z,987.43
2016-11-29T09:55:46.576Z,987.47
2016-11-29T09:56:55.261Z,987.48
2016-11-29T09:58:03.975Z,987.44
2016-11-29T09:59:12.659Z,987.39
2016-11-29T10:00:21.340Z,987.43
2016-11-29T10:01:30.022Z,987.33
2016-11-29T10:02:38.704Z,987.35
2016-11-29T10:03:47.400Z,987.31
2016-11-29T10:04:56.087Z,987.3
2016-11-29T10:06:04.773Z,987.27
2016-11-29T10:07:13.461Z,987.25
2016-11-29T10:08:22.207Z,987.23
2016-11-29T10:09:30.891Z,987.22
2016-11-29T10:10:39.571Z,987.16
2016-11-29T10:11:48.259Z,987.1
2016-11-29T10:12:56.947Z,987.07
2016-11-29T10:14:05.948Z,987.08
2016-11-29T10:15:14.629Z,987.03
2016-11-29T10:16:23.313Z,987.02
2016-11-29T10:17:32.005Z,986.96
2016-11-29T10:18:40.695Z,986.95
2016-11-29T10:19:49.380Z,986.88
2016-11-29T10:20:58.075Z,986.82
2016-11-29T10:22:06.764Z,986.82
2016-11-29T10:23:15.445Z,986.73
2016-11-29T10:24:24.135Z,986.71
2016-11-29T10:25:32.821Z,986.7
2016-11-29T10:26:41.536Z,986.64
2016-11-29T10:27:50.225Z,986.59
2016-11-29T10:28:59.223Z,986.55
2016-11-29T10:30:07.902Z,986.58
2016-11-29T10:31:16.583Z,986.5
2016-11-29T10:32:25.268Z,986.53
2016-11-29T10:33:33.954Z,986.46
2016-11-29T10:34:42.651Z,986.4
2016-11-29T10:35:51.332Z,986.43
2016-11-29T10:37:00.015Z,986.43
2016-11-29T10:38:08.711Z,986.32
2016-11-29T10:39:17.426Z,986.35
2016-11-29T10:40:26.108Z,986.3
2016-11-29T10:41:34.793Z,986.26
2016-11-29T10:42:43.477Z,986.19
2016-11-29T10:43:52.163Z,986.1
2016-11-29T10:45:00.849Z,986.16
2016-11-29T10:46:09.851Z,986.11
2016-11-29T10:47:18.538Z,986.05
2016-11-29T10:48:27.222Z,986.07
2016-11-29T10:49:35.903Z,986.04
2016-11-29T10:50:44.593Z,986.01
2016-11-29T10:51:53.278Z,985.95
2016-11-29T10:53:01.963Z,985.97
2016-11-29T10:54:10.648Z,985.99
2016-11-29T10:55:19.337Z,985.96
2016-11-29T10:56:28.021Z,985.94
2016-11-29T10:57:36.703Z,985.98
2016-11-29T10:58:45.392Z,985.97
2016-11-29T10:59:54.071Z,985.95
2016-11-29T11:01:02.758Z,985.91
2016-11-29T11:02:11.444Z,985.8
2016-11-29T11:03:20.129Z,985.82
2016-11-29T11:04:29.129Z,985.74
2016-11-29T11:05:37.815Z,985.66
2016-11-29T11:06:46.510Z,985.6
2016-11-29T11:07:55.193Z,985.68
2016-11-29T11:09:03.878Z,985.59
2016-11-29T11:10:12.560Z,985.61
2016-11-29T11:11:21.244Z,985.55
2016-11-29T11:12:30.046Z,985.52
2016-11-29T11:13:38.726Z,985.56
2016-11-29T11:14:47.414Z,985.54
2016-11-29T11:15:56.422Z,985.56
2016-11-29T11:17:05.106Z,985.53
2016-11-29T11:18:13.790Z,985.47
2016-11-29T11:19:22.473Z,985.45
2016-11-29T11:20:31.162Z,985.42
2016-11-29T11:21:39.843Z,985.39
2016-11-29T11:22:48.527Z,985.37
2016-11-29T11:23:57.213Z,985.28
2016-11-29T11:25:05.901Z,985.31
2016-11-29T11:26:14.600Z,985.27
2016-11-29T11:27:23.287Z,985.22
2016-11-29T11:28:31.977Z,985.24
2016-11-29T11:29:40.656Z,985.15
2016-11-29T11:30:49.342Z,985.23
2016-11-29T11:31:58.025Z,985.18
2016-11-29T11:33:06.712Z,985.18
2016-11-29T11:34:15.398Z,985.11
2016-11-29T11:35:24.082Z,985.11
2016-11-29T11:36:32.764Z,985
2016-11-29T11:37:41.445Z,984.96
2016-11-29T11:38:50.129Z,984.92
2016-11-29T11:39:58.810Z,984.91
2016-11-29T11:41:07.500Z,984.78
2016-11-29T11:42:16.188Z,984.89
2016-11-29T11:43:24.885Z,984.86
2016-11-29T11:44:33.912Z,984.73
2016-11-29T11:45:42.600Z,984.69
2016-11-29T11:46:51.338Z,984.59
2016-11-29T11:48:00.033Z,984.56
2016-11-29T11:49:08.716Z,984.52
2016-11-29T11:50:17.403Z,984.49
2016-11-29T11:51:26.126Z,984.51
2016-11-29T11:52:34.811Z,984.46
2016-11-29T11:53:43.496Z,984.43
2016-11-29T11:54:52.183Z,984.43
2016-11-29T11:56:00.977Z,984.42
2016-11-29T11:57:09.719Z,984.41
2016-11-29T11:58:18.406Z,984.34
2016-11-29T11:59:27.098Z,984.34
2016-11-29T12:00:35.783Z,984.33
2016-11-29T12:01:44.469Z,984.24
2016-11-29T12:02:53.157Z,984.18
2016-11-29T12:04:01.842Z,984.16
2016-11-29T12:05:10.525Z,984.12
2016-11-29T12:06:19.209Z,984.07
2016-11-29T12:07:27.896Z,984.04
2016-11-29T12:08:36.909Z,984.1
2016-11-29T12:09:45.587Z,983.99
2016-11-29T12:10:54.308Z,983.97
2016-11-29T12:12:02.994Z,983.94
2016-11-29T12:13:12.028Z,983.97
2016-11-29T12:14:20.716Z,983.91
2016-11-29T12:15:29.723Z,983.95
2016-11-29T12:16:38.417Z,983.89
2016-11-29T12:17:47.101Z,983.87
2016-11-29T12:18:55.959Z,983.85
2016-11-29T12:20:04.655Z,983.81
2016-11-29T12:21:13.344Z,983.81
2016-11-29T12:22:22.030Z,983.79
2016-11-29T12:23:30.720Z,983.74
2016-11-29T12:24:39.415Z,983.77
2016-11-29T12:25:48.094Z,983.74
2016-11-29T12:26:56.779Z,983.66
2016-11-29T12:28:05.470Z,983.64
2016-11-29T12:29:14.155Z,983.58
2016-11-29T12:30:22.836Z,983.54
2016-11-29T12:31:31.518Z,983.53
2016-11-29T12:32:40.203Z,983.48
2016-11-29T12:33:48.886Z,983.45
2016-11-29T12:34:57.573Z,983.52
2016-11-29T12:36:06.258Z,983.46
2016-11-29T12:37:14.947Z,983.46
2016-11-29T12:38:23.632Z,983.42
2016-11-29T12:39:32.424Z,983.42
2016-11-29T12:40:41.476Z,983.35
2016-11-29T12:41:50.163Z,983.32
2016-11-29T12:42:58.850Z,983.37
2016-11-29T12:44:07.862Z,983.26
2016-11-29T12:45:16.554Z,983.17
2016-11-29T12:46:25.269Z,983.14
2016-11-29T12:47:33.958Z,983.1
2016-11-29T12:48:42.641Z,983.09
2016-11-29T12:49:51.332Z,983.06
2016-11-29T12:51:00.016Z,983.02
2016-11-29T12:52:08.710Z,982.95
2016-11-29T12:53:17.744Z,982.84
2016-11-29T12:54:26.892Z,982.81
2016-11-29T12:55:35.575Z,982.92
2016-11-29T12:56:44.258Z,982.81
2016-11-29T12:57:52.939Z,982.78
2016-11-29T12:59:01.622Z,982.75
2016-11-29T13:00:10.305Z,982.82
2016-11-29T13:01:18.989Z,982.75
2016-11-29T13:02:27.669Z,982.69
2016-11-29T13:03:36.351Z,982.62
2016-11-29T13:04:45.041Z,982.65
2016-11-29T13:05:53.728Z,982.57
2016-11-29T13:07:02.410Z,982.47
2016-11-29T13:08:11.098Z,982.52
2016-11-29T13:09:19.787Z,982.54
2016-11-29T13:10:28.477Z,982.46
2016-11-29T13:11:37.212Z,982.38
2016-11-29T13:12:45.937Z,982.33
2016-11-29T13:13:54.621Z,982.32
2016-11-29T13:15:03.619Z,982.33
2016-11-29T13:16:12.304Z,982.27
2016-11-29T13:17:20.989Z,982.3
2016-11-29T13:18:29.683Z,982.33
2016-11-29T13:19:38.371Z,982.23
2016-11-29T13:20:47.058Z,982.18
2016-11-29T13:21:55.738Z,982.16
2016-11-29T13:23:04.422Z,982.15
2016-11-29T13:24:13.469Z,982.14
2016-11-29T13:25:22.466Z,982.13
2016-11-29T13:26:31.152Z,982.13
2016-11-29T13:27:39.833Z,982.05
2016-11-29T13:28:48.518Z,982.1
2016-11-29T13:29:57.201Z,982.13
2016-11-29T13:31:05.891Z,982.07
2016-11-29T13:32:14.579Z,982.12
2016-11-29T13:33:23.266Z,982.09
2016-11-29T13:34:31.956Z,982.14
2016-11-29T13:35:40.637Z,982.11
2016-11-29T13:36:49.322Z,982.17
2016-11-29T13:37:58.017Z,982.09
2016-11-29T13:39:06.696Z,982.11
2016-11-29T13:40:15.381Z,982.1
2016-11-29T13:41:24.062Z,982.03
2016-11-29T13:42:32.745Z,982.08
2016-11-29T13:43:41.432Z,982.02
2016-11-29T13:44:50.109Z,982.03
2016-11-29T13:45:58.791Z,981.99
2016-11-29T13:47:07.483Z,981.98
2016-11-29T13:48:16.167Z,982.03
2016-11-29T13:49:25.161Z,981.99
2016-11-29T13:50:33.846Z,981.93
2016-11-29T13:51:42.535Z,981.9
2016-11-29T13:52:51.221Z,981.88
2016-11-29T13:53:59.905Z,981.92
2016-11-29T13:55:08.632Z,981.83
2016-11-29T13:56:17.651Z,981.83
2016-11-29T13:57:26.334Z,981.84
2016-11-29T13:58:35.022Z,981.83
2016-11-29T13:59:43.706Z,981.75
2016-11-29T14:00:52.389Z,981.85
2016-11-29T14:02:01.074Z,981.81
2016-11-29T14:03:09.766Z,981.91
2016-11-29T14:04:18.504Z,981.9
2016-11-29T14:05:27.187Z,981.84
2016-11-29T14:06:35.874Z,981.92
2016-11-29T14:07:44.590Z,981.94
2016-11-29T14:08:53.273Z,981.92
2016-11-29T14:10:01.963Z,981.89
2016-11-29T14:11:10.652Z,981.9
2016-11-29T14:12:19.340Z,981.87
2016-11-29T14:13:28.023Z,981.9
2016-11-29T14:14:36.709Z,981.86
2016-11-29T14:15:45.398Z,981.83
2016-11-29T14:16:54.076Z,981.83
2016-11-29T14:18:02.763Z,981.82
2016-11-29T14:19:11.446Z,981.77
2016-11-29T14:20:20.128Z,981.66